Main page
METAR-TAF:

METAR-TAF

Airports :

Brownwood Regional Airport

Brownwood, Texas, United States

latitude: 31-48N, longitude: 098-57W, elevation: 1384 ft

Current weather observation

The report was made 32 minutes ago, at 13:55 UTC
Wind 16 mph from the South with gusts up to 21 mph
Temperature 81°F
Humidity 74%
Pressure 29.86 in. Hg
Visibility: 10 miles
Overcast at a height of 2000 ft

METAR: KBWD 171355Z AUTO 17014G18KT 10SM OVC020 27/22 A2986 RMK AO1

Time: 09:27 (14:27 UTC)


TAF: missing

Weather observations and forecasts of more than 4000 airports (METAR and TAF reports).

The available stations are represented by yellow and red dots on the map.

Hover mouse over dot to see the name of the station.

Then click to see weather observations and forecasts.

To change the map : click on the green buttons with a black cross to zoom in, on the green button with a dash to zoom out, or on the green arrows for adjacent maps.


METAR-TAF: